Kezdőlap
METAR-TAF:

METAR-TAF

Repülőterek :

Toncontín nemzetközi repülőtér

Tegucigalpa, Honduras

földrajzi szélesség: 14-03N, földrajzi hosszúság: 087-13W, magasság: 994 m

Jelenlegi meteorológiai megfigyelések

A jelentés 30 perccel ezelõtt készült, 21:00 UTC
Kelet-északkeleti szél 11 kt
Hőmérséklet 28°C
Páratartalom 45%
Légköri nyomás 1018 hPa
Látótávolság 10 km, vagy több
Szórványos felhőzet 3400 lábon
Szórványos felhőzet 25000 lábon

METAR: MHTG 192100Z 06011KT 9999 SCT034 SCT250 28/15 Q1018 A3006 NOSIG

Idő: 15:30 (21:30 UTC)

Előrejelzés

A jelentés 5 órával és 0 perccel ezelõtt készült, 16:30 UTC
Az előrejelzés 19-én 18 óra UTC és 20-én 18 óra UTC között érvényes
Kelet-északkeleti szél 14 kt
Látótávolság 10 km, vagy több
Szórványos felhőzet 2800 lábon
20-én 02 óra UTC és 20-én 04 óra UTC között fokozatosan kialakuló
Északi szél 10 kt

TAF: MHTG 191630Z 1918/2018 06014KT 9999 SCT028 TX29/1920Z TN17/2012Z BECMG 2002/2004 36010KT

Meteorológiai megfigyelések és előrejelzések több, mint 4000 repülőtéren (METAR és TAF jelentéseket).

A térképen piros és sárga pontok jelzik az elérhető meteorológiai állomásokat.

Mozgassa az egeret a pont fölött, hogy megjelenjen az állomás neve.

Azután kattintson az időjárási megfigyelések és előrejelzések megtekintéséhez.

A térkép megváltoztatása: kattintson a fekete keresztel jelölt zöld gombra ráközelítéshez, a vonallal jelölt zöld gombra távolításhoz, vagy a zöld nyilakra a szomszédos térképek eléréséhez.


METAR-TAF: